Impacts TAF Board INFO
FOR SITUATIONAL AWARENESS. NOT TO BE USED FOR FLIGHT PLANNING PURPOSES.
IDs:

KJFK - New York/Kennedy Int, NY, US

Issued at 1946 UTC 22 May 2018
Updated at 2110 UTC 22 May 2018
Potential Impact None Slight Moderate High
Time<<23/10Z 23/11Z 23/12Z 23/13Z 23/14Z 23/15Z 23/16Z 23/17Z 23/18Z 23/19Z 23/20Z 23/21Z 23/22Z>>
Type PRVL PRVL PRVL PRVL PRVL PRVL PRVL PRVL PRVL PRVL PRVL PRVL PRVL
VIS 1.5 1.5 1.5 >6 >6 >6 >6 >6 >6 >6 >6 >6 >6
CIG 5 5 5 -- -- -- -- -- -- -- -- -- --
Cover OVC OVC OVC SCT SCT SCT SCT SCT FEW FEW FEW FEW FEW
FltCat IFR IFR IFR VFR VFR VFR VFR VFR VFR VFR VFR VFR VFR
WX BR VCSH BR VCSH BR VCSH -- -- -- -- -- -- -- -- -- --
WDir 260 260 260 320 320 320 320 320 310 310 310 310 310
WSpd 5 5 5 8 8 8 8 8 12 12 12 12 12
WGst -- -- -- -- -- -- -- -- -- -- -- -- --

Raw TAF
KJFK 221946Z 2220/2324 16004KT 5SM -SHRA FEW015 BKN035 OVC050
  FM222200 13005KT 3SM -SHRA BR OVC015
  FM230000 11004KT 2SM -SHRA BR OVC007
  FM230500 VRB04KT 1SM -SHRA BR OVC005
  FM230800 26005KT 1 1/2SM BR VCSH OVC005
  FM231300 32008KT P6SM SCT020 SCT090
  FM231800 31012KT P6SM FEW100


METAR Board
Radar Display
Forecast Discussion

FOR SITUATIONAL AWARENESS. NOT TO BE USED FOR FLIGHT PLANNING PURPOSES.